Time;durP1;ratioP1;P1;durP2;ratioP2;P2;SDS_P1;SDS_P2;PMS_P1;PMS_P2;Temp;Humidity;BMP_temperature;BMP_pressure;BME280_temperature;BME280_humidity;BME280_pressure;Samples;Min_cycle;Max_cycle;Signal;HPM_P1;HPM_P2
2022/02/19 00:01:08;;;;;;;3.70;1.47;;;;;;;6.24;49.56;99820.75;5030704;28;20198;-76
2022/02/19 00:03:36;;;;;;;4.47;1.27;;;;;;;6.23;51.71;99819.88;5030805;28;20718;-76
2022/02/19 00:06:03;;;;;;;3.70;1.40;;;;;;;6.20;52.70;99812.13;5030708;28;20729;-75
2022/02/19 00:08:29;;;;;;;4.23;1.40;;;;;;;6.20;51.50;99800.91;5030652;28;20743;-75
2022/02/19 00:10:55;;;;;;;5.37;2.27;;;;;;;6.19;51.80;99784.53;5030771;28;20209;-75
2022/02/19 00:13:22;;;;;;;4.67;1.73;;;;;;;6.20;50.46;99824.25;5030752;28;20282;-75
2022/02/19 00:15:48;;;;;;;6.27;1.80;;;;;;;6.16;52.40;99788.00;5030728;28;20229;-76
2022/02/19 00:18:15;;;;;;;6.50;2.30;;;;;;;6.10;53.13;99797.56;5030785;28;20205;-76
2022/02/19 00:20:43;;;;;;;7.70;1.90;;;;;;;6.12;51.69;99788.91;5030808;28;20263;-76
2022/02/19 00:23:09;;;;;;;5.20;1.63;;;;;;;6.15;53.16;99778.50;5032552;28;20290;-76
2022/02/19 00:25:35;;;;;;;4.80;1.50;;;;;;;6.11;52.37;99783.75;5035771;28;20204;-76
2022/02/19 00:28:02;;;;;;;5.17;2.13;;;;;;;6.05;53.17;99781.22;5034722;28;20213;-76
2022/02/19 00:30:29;;;;;;;4.30;1.33;;;;;;;6.07;53.16;99779.47;5034140;28;20206;-75
2022/02/19 00:32:55;;;;;;;4.43;1.87;;;;;;;6.05;51.98;99774.31;5034181;28;20705;-76
2022/02/19 00:35:22;;;;;;;4.83;1.43;;;;;;;6.05;53.17;99768.28;5033833;28;20233;-76
2022/02/19 00:37:50;;;;;;;12.77;2.20;;;;;;;6.07;53.29;99788.09;5034591;28;20285;-76
2022/02/19 00:40:16;;;;;;;10.60;2.03;;;;;;;6.08;54.41;99744.91;5034120;28;20517;-76
2022/02/19 00:42:43;;;;;;;6.63;1.47;;;;;;;6.08;53.11;99763.91;5034101;28;20213;-76
2022/02/19 00:45:10;;;;;;;8.43;2.17;;;;;;;6.03;54.04;99744.97;5033845;28;20784;-76
2022/02/19 00:47:36;;;;;;;4.93;1.87;;;;;;;6.12;52.15;99786.31;5033720;28;20220;-77
2022/02/19 00:50:03;;;;;;;6.80;1.60;;;;;;;6.10;52.30;99782.03;5038169;23;20272;-80
2022/02/19 00:52:29;;;;;;;5.63;1.70;;;;;;;6.03;53.36;99773.47;5030557;28;20217;-79
2022/02/19 00:54:57;;;;;;;4.07;1.43;;;;;;;6.07;53.75;99793.28;5034733;28;20217;-79
2022/02/19 00:57:23;;;;;;;7.83;1.57;;;;;;;6.01;52.81;99827.03;5035304;28;20229;-80
2022/02/19 00:59:50;;;;;;;8.40;1.43;;;;;;;6.02;54.14;99789.88;5027571;28;20292;-80
2022/02/19 01:02:16;;;;;;;6.67;1.37;;;;;;;6.00;53.38;99803.72;5015134;28;20632;-78
2022/02/19 01:04:42;;;;;;;6.87;1.80;;;;;;;5.93;52.76;99829.66;5014666;28;20207;-80
2022/02/19 01:07:09;;;;;;;4.90;1.67;;;;;;;5.85;52.84;99808.16;5014483;28;20222;-79
2022/02/19 01:09:35;;;;;;;2.83;1.33;;;;;;;5.87;53.14;99797.81;5014840;28;20723;-79
2022/02/19 01:12:03;;;;;;;6.67;1.40;;;;;;;5.85;53.29;99800.41;5014680;28;20632;-79
2022/02/19 01:14:30;;;;;;;4.63;2.00;;;;;;;5.86;52.89;99820.22;5014791;28;20214;-79
2022/02/19 01:16:56;;;;;;;6.67;1.40;;;;;;;5.84;53.74;99813.34;5014961;28;20207;-79
2022/02/19 01:19:23;;;;;;;4.70;1.60;;;;;;;5.80;52.50;99828.06;5014455;28;20226;-80
2022/02/19 01:21:49;;;;;;;6.90;1.23;;;;;;;5.80;53.69;99822.88;5014746;28;20681;-80
2022/02/19 01:24:15;;;;;;;4.27;1.30;;;;;;;5.73;52.68;99876.47;5014812;28;20284;-79
2022/02/19 01:26:42;;;;;;;3.47;1.17;;;;;;;5.77;52.96;99849.66;5014708;28;20229;-80
2022/02/19 01:29:09;;;;;;;2.53;0.90;;;;;;;5.69;53.57;99835.06;5024319;28;20298;-79
2022/02/19 01:31:36;;;;;;;3.07;1.37;;;;;;;5.63;54.49;99861.88;5034286;28;20586;-80
2022/02/19 01:34:02;;;;;;;7.00;1.40;;;;;;;5.62;53.52;99854.97;5033573;28;20209;-80
2022/02/19 01:36:29;;;;;;;5.77;1.30;;;;;;;5.62;54.79;99867.91;5033864;28;20275;-79
2022/02/19 01:38:55;;;;;;;4.53;1.33;;;;;;;5.51;53.55;99834.38;5034026;28;20298;-79
2022/02/19 01:41:22;;;;;;;2.43;0.97;;;;;;;5.50;53.81;99829.19;5034058;28;20204;-79
2022/02/19 01:43:49;;;;;;;4.87;1.17;;;;;;;5.52;53.46;99871.47;5033718;28;20206;-79
2022/02/19 01:46:17;;;;;;;7.07;1.03;;;;;;;5.52;54.24;99907.69;5033989;28;20232;-79
2022/02/19 01:48:44;;;;;;;4.20;1.20;;;;;;;5.42;54.51;99857.72;5033937;28;20236;-80
2022/02/19 01:51:11;;;;;;;6.37;1.57;;;;;;;5.47;54.65;99868.03;5035322;28;20207;-80
2022/02/19 01:53:37;;;;;;;3.60;1.47;;;;;;;5.40;55.09;99858.63;5035205;28;20285;-79
2022/02/19 01:56:04;;;;;;;2.73;1.10;;;;;;;5.37;54.05;99882.75;5034798;28;20696;-79
2022/02/19 01:58:31;;;;;;;5.57;1.27;;;;;;;5.35;54.64;99827.56;5024463;28;20228;-80
2022/02/19 02:00:58;;;;;;;5.53;1.23;;;;;;;5.43;54.55;99840.44;5031143;28;20205;-79
2022/02/19 02:03:25;;;;;;;4.67;0.80;;;;;;;5.38;55.32;99851.69;5034610;28;20208;-80
2022/02/19 02:05:53;;;;;;;3.97;1.27;;;;;;;5.34;54.98;99794.81;5034530;28;20209;-79
2022/02/19 02:08:20;;;;;;;4.20;1.00;;;;;;;5.37;54.18;99875.00;5034686;28;20263;-79
2022/02/19 02:10:47;;;;;;;6.53;1.13;;;;;;;5.35;55.26;99824.97;5034536;28;20425;-80
2022/02/19 02:13:13;;;;;;;5.43;1.03;;;;;;;5.37;55.23;99776.66;5034743;28;20215;-80
2022/02/19 02:15:40;;;;;;;4.50;1.27;;;;;;;5.38;56.19;99843.94;5035038;28;20210;-80
2022/02/19 02:18:06;;;;;;;3.20;1.20;;;;;;;5.35;55.97;99797.41;5034494;28;20236;-80
2022/02/19 02:20:34;;;;;;;8.00;1.80;;;;;;;5.31;56.17;99803.47;5034586;28;20676;-79
2022/02/19 02:23:02;;;;;;;4.23;1.73;;;;;;;5.34;55.43;99784.47;5034682;28;20205;-79
2022/02/19 02:25:30;;;;;;;3.80;1.20;;;;;;;5.41;57.15;99795.63;5034450;28;20211;-80
2022/02/19 02:27:57;;;;;;;8.27;1.80;;;;;;;5.34;56.12;99852.59;5029281;28;20228;-79
2022/02/19 02:30:24;;;;;;;3.10;1.40;;;;;;;5.33;56.38;99788.78;5026248;28;20267;-79
2022/02/19 02:32:51;;;;;;;4.67;1.20;;;;;;;5.37;55.54;99852.59;5034187;28;20217;-80
2022/02/19 02:35:18;;;;;;;6.03;1.43;;;;;;;5.38;56.20;99806.84;5034922;28;20638;-79
2022/02/19 02:37:44;;;;;;;3.73;1.10;;;;;;;5.35;55.42;99856.03;5034496;28;20296;-79
2022/02/19 02:40:13;;;;;;;2.70;1.07;;;;;;;5.32;56.50;99827.59;5033959;28;20283;-79
2022/02/19 02:42:39;;;;;;;5.20;1.53;;;;;;;5.27;56.68;99821.59;5033916;28;20204;-79
2022/02/19 02:45:06;;;;;;;5.00;1.30;;;;;;;5.31;57.07;99818.13;5033721;28;20274;-79
2022/02/19 02:47:35;;;;;;;3.53;1.13;;;;;;;5.24;57.25;99799.19;5033045;28;20229;-79
2022/02/19 02:50:02;;;;;;;3.10;1.10;;;;;;;5.24;56.86;99819.91;5033206;28;20747;-79
2022/02/19 02:52:28;;;;;;;4.67;1.33;;;;;;;5.29;57.24;99812.97;5034024;28;20240;-78
2022/02/19 02:54:55;;;;;;;5.43;1.07;;;;;;;5.22;56.78;99826.81;5033969;28;20209;-79
2022/02/19 02:57:22;;;;;;;4.07;1.17;;;;;;;5.23;57.96;99804.38;5028446;28;20195;-80
2022/02/19 02:59:49;;;;;;;3.60;1.40;;;;;;;5.14;59.45;99764.78;5025144;28;20282;-80
2022/02/19 03:02:15;;;;;;;6.17;1.63;;;;;;;4.98;60.80;99709.72;5034090;28;20269;-80
2022/02/19 03:04:41;;;;;;;4.77;1.30;;;;;;;4.89;61.75;99699.44;5034147;28;20209;-79
2022/02/19 03:07:08;;;;;;;4.07;1.10;;;;;;;4.80;63.49;99701.22;5034574;28;20227;-79
2022/02/19 03:09:34;;;;;;;2.27;1.27;;;;;;;4.68;63.73;99653.09;5033331;28;20277;-79
2022/02/19 03:12:00;;;;;;;6.47;2.13;;;;;;;4.51;65.81;99629.94;5033990;28;20212;-79
2022/02/19 03:14:28;;;;;;;7.20;1.60;;;;;;;4.53;65.20;99597.19;5033400;28;20747;-80
2022/02/19 03:16:55;;;;;;;5.27;1.40;;;;;;;4.55;64.91;99614.41;5033657;28;20203;-80
2022/02/19 03:19:21;;;;;;;2.97;1.20;;;;;;;4.41;66.09;99577.47;5033341;28;20222;-80
2022/02/19 03:21:47;;;;;;;5.60;1.47;;;;;;;4.22;69.74;99539.72;5033701;28;20211;-79
2022/02/19 03:24:14;;;;;;;6.07;1.53;;;;;;;4.21;69.57;99481.22;5033475;28;20210;-79
2022/02/19 03:26:40;;;;;;;4.03;1.17;;;;;;;4.12;70.29;99467.50;5030921;28;20237;-80
2022/02/19 03:29:06;;;;;;;2.80;1.27;;;;;;;4.04;71.04;99429.69;5023265;28;20294;-80
2022/02/19 03:31:34;;;;;;;2.87;1.20;;;;;;;3.96;72.37;99438.38;5033256;28;20206;-79
2022/02/19 03:34:01;;;;;;;2.67;1.10;;;;;;;3.98;72.59;99410.81;5033521;28;20210;-79
2022/02/19 03:36:27;;;;;;;5.13;1.93;;;;;;;3.98;72.22;99404.78;5033903;28;20202;-78
2022/02/19 03:38:54;;;;;;;2.77;1.33;;;;;;;3.94;73.05;99441.81;5033772;28;20653;-78
2022/02/19 03:41:20;;;;;;;2.27;1.07;;;;;;;3.81;73.92;99383.44;5033479;28;20209;-79
2022/02/19 03:43:46;;;;;;;4.77;1.50;;;;;;;3.71;76.39;99329.31;5034479;28;20766;-79
2022/02/19 03:46:13;;;;;;;8.93;1.67;;;;;;;3.88;73.69;99360.09;5033835;28;20661;-78
2022/02/19 03:48:40;;;;;;;5.10;1.40;;;;;;;3.91;73.90;99390.22;5033797;28;20231;-79
2022/02/19 03:51:07;;;;;;;4.83;1.20;;;;;;;4.01;72.87;99396.16;5034353;28;20204;-79
2022/02/19 03:53:33;;;;;;;3.80;1.37;;;;;;;4.15;70.88;99475.22;5034169;28;20258;-78
2022/02/19 03:55:59;;;;;;;3.27;1.27;;;;;;;4.22;69.45;99507.00;5034670;28;20208;-79
2022/02/19 03:58:26;;;;;;;4.23;1.50;;;;;;;4.25;70.10;99525.06;5027139;28;20198;-79
2022/02/19 04:00:52;;;;;;;4.33;1.30;;;;;;;4.25;69.43;99560.38;5032995;28;20232;-80
2022/02/19 04:03:18;;;;;;;15.07;1.50;;;;;;;4.21;70.69;99545.78;5038002;28;20212;-79
2022/02/19 04:05:47;;;;;;;6.63;1.17;;;;;;;4.23;69.86;99546.63;5038572;28;20207;-79
2022/02/19 04:08:13;;;;;;;4.10;1.07;;;;;;;4.23;70.90;99601.72;5038408;28;20242;-80
2022/02/19 04:10:40;;;;;;;3.67;1.37;;;;;;;4.06;72.41;99546.72;5037242;28;20673;-79
2022/02/19 04:13:06;;;;;;;5.97;1.57;;;;;;;4.00;73.40;99546.78;5038218;28;20244;-79
2022/02/19 04:15:33;;;;;;;3.50;1.47;;;;;;;3.93;74.01;99515.84;5037860;28;20215;-78
2022/02/19 04:17:59;;;;;;;2.27;0.90;;;;;;;3.75;76.32;99488.44;5037335;28;20209;-79
2022/02/19 04:20:26;;;;;;;6.83;1.43;;;;;;;3.60;78.95;99434.31;5037392;28;20235;-79
2022/02/19 04:22:56;;;;;;;4.70;1.23;;;;;;;3.54;80.35;99393.94;5037628;28;20210;-78
2022/02/19 04:25:25;;;;;;;6.73;1.97;;;;;;;3.43;82.35;99358.78;5037839;28;20225;-78
2022/02/19 04:27:52;;;;;;;5.70;1.60;;;;;;;3.13;84.09;99275.59;5031624;28;20248;-78
2022/02/19 04:30:18;;;;;;;3.63;1.50;;;;;;;3.01;86.09;99208.69;5028942;28;20304;-78
2022/02/19 04:32:45;;;;;;;4.23;1.40;;;;;;;2.90;86.76;99183.00;5037339;28;20218;-80
2022/02/19 04:35:11;;;;;;;6.03;1.83;;;;;;;2.83;88.60;99153.84;5037421;28;20276;-79
2022/02/19 04:37:37;;;;;;;5.93;1.60;;;;;;;2.77;89.72;99103.25;5037052;28;20208;-78
2022/02/19 04:40:07;;;;;;;5.70;2.00;;;;;;;2.81;89.59;99111.78;5037038;28;20227;-78
2022/02/19 04:42:35;;;;;;;5.43;1.43;;;;;;;2.80;90.16;99124.69;5037450;28;20233;-79
2022/02/19 04:45:01;;;;;;;5.93;1.77;;;;;;;2.84;89.29;99113.47;5037159;28;20210;-78
2022/02/19 04:47:27;;;;;;;4.90;1.13;;;;;;;2.85;89.16;99143.53;5036441;28;20221;-79
2022/02/19 04:49:54;;;;;;;4.83;1.47;;;;;;;2.86;89.74;99179.59;5036685;28;20235;-79
2022/02/19 04:52:20;;;;;;;4.60;1.00;;;;;;;2.87;89.23;99163.25;5036823;28;20206;-78
2022/02/19 04:54:46;;;;;;;4.27;1.63;;;;;;;2.77;89.75;99147.03;5036902;28;20207;-78
2022/02/19 04:57:14;;;;;;;4.77;1.50;;;;;;;2.80;90.18;99169.34;5031462;28;20261;-78
2022/02/19 04:59:41;;;;;;;5.10;1.40;;;;;;;2.76;90.18;99178.81;5028817;28;20224;-80
2022/02/19 05:02:07;;;;;;;7.10;1.53;;;;;;;2.78;90.31;99160.78;5036549;28;20210;-78
2022/02/19 05:04:33;;;;;;;6.13;1.90;;;;;;;2.75;89.93;99160.78;5036423;28;20264;-79
2022/02/19 05:07:00;;;;;;;4.80;1.40;;;;;;;2.78;90.09;99191.69;5036735;28;20707;-78
2022/02/19 05:09:26;;;;;;;6.83;1.70;;;;;;;2.77;89.05;99206.31;5035109;28;20272;-78
2022/02/19 05:11:52;;;;;;;4.87;1.40;;;;;;;2.84;89.20;99222.56;5036204;28;20230;-79
2022/02/19 05:14:20;;;;;;;4.50;1.67;;;;;;;2.87;88.60;99243.13;5036352;28;20261;-79
2022/02/19 05:16:46;;;;;;;3.97;2.03;;;;;;;2.86;89.47;99256.06;5036658;28;20203;-78
2022/02/19 05:19:13;;;;;;;9.97;1.80;;;;;;;2.87;89.64;99256.03;5035754;28;20283;-78
2022/02/19 05:21:39;;;;;;;5.77;1.53;;;;;;;2.91;88.41;99244.81;5035719;28;20242;-79
2022/02/19 05:24:06;;;;;;;3.33;0.93;;;;;;;2.99;87.52;99319.53;5036455;28;20229;-79
2022/02/19 05:26:32;;;;;;;6.53;2.03;;;;;;;2.88;88.28;99288.69;5034475;28;20207;-79
2022/02/19 05:28:58;;;;;;;4.60;1.40;;;;;;;2.88;89.16;99299.00;5022691;28;20234;-79
2022/02/19 05:31:26;;;;;;;4.40;1.60;;;;;;;2.86;89.01;99298.16;4996943;28;20225;-79
2022/02/19 05:33:53;;;;;;;4.50;1.60;;;;;;;2.80;89.43;99307.66;4996422;28;20207;-78
2022/02/19 05:36:19;;;;;;;4.23;1.60;;;;;;;2.79;90.10;99283.56;4997119;28;20223;-78
2022/02/19 05:38:45;;;;;;;4.00;1.60;;;;;;;2.79;90.47;99278.41;4996605;28;20279;-79
2022/02/19 05:41:12;;;;;;;3.43;1.20;;;;;;;2.79;89.64;99299.03;4996119;28;20208;-79
2022/02/19 05:43:38;;;;;;;4.10;1.60;;;;;;;2.82;89.21;99308.50;4996499;28;20204;-79
2022/02/19 05:46:04;;;;;;;5.73;1.80;;;;;;;2.81;89.84;99322.22;4996527;28;20207;-79
2022/02/19 05:48:32;;;;;;;5.53;1.20;;;;;;;2.83;88.72;99328.22;4996415;28;20266;-79
2022/02/19 05:51:00;;;;;;;4.50;1.97;;;;;;;2.96;87.17;99348.75;4995981;28;20321;-79
2022/02/19 05:53:26;;;;;;;7.97;1.47;;;;;;;3.05;85.88;99404.56;4996121;28;20204;-79
2022/02/19 05:55:53;;;;;;;3.93;1.43;;;;;;;3.10;85.49;99428.59;4996815;28;20209;-79
2022/02/19 05:58:20;;;;;;;2.07;0.83;;;;;;;3.20;83.35;99485.31;5016099;28;20293;-78
2022/02/19 06:00:46;;;;;;;3.53;1.20;;;;;;;3.29;82.41;99522.22;5031141;28;20277;-78
2022/02/19 06:03:13;;;;;;;2.20;1.73;;;;;;;3.44;80.07;99572.03;5035999;28;20755;-79
2022/02/19 06:05:40;;;;;;;2.90;1.20;;;;;;;3.51;79.21;99643.38;5036656;28;20642;-79
2022/02/19 06:08:07;;;;;;;4.13;1.30;;;;;;;3.57;77.21;99648.53;5035400;28;20607;-79
2022/02/19 06:10:33;;;;;;;3.73;1.17;;;;;;;3.55;78.97;99669.16;5035011;28;20230;-78
2022/02/19 06:12:59;;;;;;;5.27;1.30;;;;;;;3.66;76.88;99722.47;5034729;28;20211;-79
2022/02/19 06:15:26;;;;;;;6.70;1.30;;;;;;;3.67;76.74;99743.13;5035536;28;20206;-78
2022/02/19 06:17:52;;;;;;;4.40;1.83;;;;;;;3.81;74.02;99780.94;5035156;28;20202;-79
2022/02/19 06:20:18;;;;;;;5.50;1.33;;;;;;;3.87;74.22;99832.56;5035447;28;20231;-78
2022/02/19 06:22:46;;;;;;;6.50;1.23;;;;;;;3.91;72.94;99870.44;5035490;28;20208;-79
2022/02/19 06:25:12;;;;;;;3.90;1.10;;;;;;;4.00;70.92;99919.47;5035045;28;20579;-79
2022/02/19 06:27:39;;;;;;;6.00;1.30;;;;;;;4.04;70.94;99965.06;5033897;28;20274;-79
2022/02/19 06:30:07;;;;;;;3.70;1.40;;;;;;;4.01;71.59;99947.00;5026724;28;20228;-79
2022/02/19 06:32:33;;;;;;;7.60;1.30;;;;;;;4.03;71.15;99978.00;5035475;28;20580;-78
2022/02/19 06:34:59;;;;;;;8.43;1.07;;;;;;;4.03;71.02;99983.19;5035048;28;20644;-79
2022/02/19 06:37:26;;;;;;;11.20;3.77;;;;;;;4.05;71.75;99984.03;5035367;28;20208;-78
2022/02/19 06:39:53;;;;;;;7.70;2.07;;;;;;;4.08;69.95;99996.94;5034857;28;20225;-79
2022/02/19 06:42:20;;;;;;;5.77;1.37;;;;;;;4.10;69.17;99990.03;5035805;28;20259;-78
2022/02/19 06:44:46;;;;;;;4.13;1.00;;;;;;;4.14;68.54;100041.72;5034963;28;20213;-78
2022/02/19 06:47:12;;;;;;;3.43;1.00;;;;;;;4.11;69.41;100066.69;5034407;28;20256;-78
2022/02/19 06:49:39;;;;;;;3.20;1.00;;;;;;;4.10;68.67;100073.56;5050065;23;20293;-79
2022/02/19 06:52:06;;;;;;;2.20;0.80;;;;;;;4.10;68.54;100073.56;5021442;28;20211;-79
2022/02/19 06:54:32;;;;;;;5.70;1.20;;;;;;;4.03;68.59;100095.06;5013590;28;20210;-80
2022/02/19 06:57:00;;;;;;;8.17;1.40;;;;;;;4.08;67.72;100088.19;5014194;28;20203;-80
2022/02/19 06:59:27;;;;;;;4.53;1.53;;;;;;;4.09;67.11;100140.72;5024774;28;20479;-77
2022/02/19 07:01:53;;;;;;;3.80;1.57;;;;;;;4.02;68.03;100152.72;5032878;28;20616;-80
2022/02/19 07:04:19;;;;;;;3.60;1.20;;;;;;;4.03;67.41;100169.13;5033424;28;20209;-80
2022/02/19 07:06:46;;;;;;;5.10;1.63;;;;;;;4.04;67.40;100150.16;5023856;28;20202;-79
2022/02/19 07:09:12;;;;;;;6.07;1.40;;;;;;;4.03;68.23;100182.03;5021611;28;20223;-78
2022/02/19 07:11:38;;;;;;;4.03;1.20;;;;;;;4.00;67.63;100182.84;5022230;28;20199;-80
2022/02/19 07:14:06;;;;;;;5.00;0.90;;;;;;;4.04;67.03;100194.91;5021783;28;20199;-80
2022/02/19 07:16:32;;;;;;;3.90;1.57;;;;;;;4.10;65.17;100235.41;5022366;28;20256;-80
2022/02/19 07:18:59;;;;;;;3.90;1.27;;;;;;;4.16;64.90;100306.06;5023919;28;20227;-79
2022/02/19 07:21:25;;;;;;;4.73;1.30;;;;;;;4.12;65.66;100296.56;5023285;28;20260;-76
2022/02/19 07:23:51;;;;;;;6.47;2.07;;;;;;;4.10;66.05;100287.97;5021423;28;20199;-80
2022/02/19 07:26:18;;;;;;;5.33;1.03;;;;;;;4.12;65.89;100309.50;5024175;28;20251;-80
2022/02/19 07:28:44;;;;;;;4.90;1.33;;;;;;;4.11;65.80;100307.75;5023742;28;20235;-78
2022/02/19 07:31:13;;;;;;;3.43;1.17;;;;;;;4.14;65.49;100312.06;5022950;28;20257;-80
2022/02/19 07:33:40;;;;;;;2.73;1.33;;;;;;;4.15;65.42;100348.25;5024564;28;20278;-80
2022/02/19 07:36:06;;;;;;;3.20;0.97;;;;;;;4.18;65.71;100318.97;5026670;28;20203;-81
2022/02/19 07:38:33;;;;;;;5.37;1.30;;;;;;;4.16;66.05;100326.72;5028107;28;20226;-80
2022/02/19 07:40:59;;;;;;;4.00;1.20;;;;;;;4.20;64.63;100363.75;5026234;28;20247;-80
2022/02/19 07:43:26;;;;;;;3.07;1.07;;;;;;;4.17;64.71;100405.09;5026406;28;20222;-80
2022/02/19 07:45:52;;;;;;;4.47;1.07;;;;;;;4.18;64.82;100381.84;5027746;28;20196;-80
2022/02/19 07:48:20;;;;;;;7.07;1.53;;;;;;;4.17;64.61;100395.59;5026846;28;20224;-79
2022/02/19 07:58:58;;;;;;;4.53;1.07;;;;;;;4.32;64.52;100424.97;5025922;28;20198;-80
2022/02/19 08:01:24;;;;;;;7.17;1.77;;;;;;;4.30;64.85;100440.50;5026632;28;20208;-79
2022/02/19 08:03:52;;;;;;;4.53;1.20;;;;;;;4.33;64.82;100447.38;5025669;28;21671;-80
2022/02/19 08:06:18;;;;;;;3.57;1.03;;;;;;;4.23;65.50;100440.44;5025385;28;20204;-82
2022/02/19 08:08:45;;;;;;;5.13;1.23;;;;;;;4.30;66.02;100414.66;5026433;28;20232;-78
2022/02/19 08:11:11;;;;;;;3.00;1.10;;;;;;;4.33;66.69;100396.56;5026383;28;20271;-78
2022/02/19 08:13:37;;;;;;;6.17;1.60;;;;;;;4.38;67.83;100386.28;5025449;28;20271;-79
2022/02/19 08:16:04;;;;;;;5.30;1.50;;;;;;;4.41;68.10;100394.03;5026173;28;20252;-80
2022/02/19 08:18:32;;;;;;;4.13;1.30;;;;;;;4.44;69.02;100357.00;5026760;28;20197;-78
2022/02/19 08:20:59;;;;;;;5.97;1.97;;;;;;;4.41;68.14;100375.94;5024037;28;20737;-78
2022/02/19 08:23:26;;;;;;;4.93;1.20;;;;;;;4.43;68.47;100378.53;5025438;28;20229;-78
2022/02/19 08:25:52;;;;;;;3.30;1.30;;;;;;;4.43;68.52;100375.94;5026847;28;20253;-80
2022/02/19 08:28:20;;;;;;;3.80;1.20;;;;;;;4.41;67.59;100385.41;5025792;28;20228;-79
2022/02/19 08:30:47;;;;;;;9.20;1.70;;;;;;;4.43;68.53;100404.38;5028019;28;20262;-80
2022/02/19 08:33:14;;;;;;;4.90;1.30;;;;;;;4.49;68.67;100386.31;5029393;28;20201;-79
2022/02/19 08:35:41;;;;;;;5.63;1.37;;;;;;;4.57;68.94;100394.97;5028159;28;20202;-80
2022/02/19 08:38:12;;;;;;;4.63;1.73;;;;;;;4.54;68.47;100403.59;5028850;28;20269;-78
2022/02/19 08:40:40;;;;;;;6.77;1.60;;;;;;;4.49;68.81;100433.69;5025260;28;20222;-80
2022/02/19 08:43:07;;;;;;;4.83;1.50;;;;;;;4.51;69.15;100411.31;5026000;28;20267;-79
2022/02/19 08:45:34;;;;;;;6.63;1.93;;;;;;;4.47;67.79;100456.09;5023494;28;20211;-78
2022/02/19 08:48:04;;;;;;;4.10;1.40;;;;;;;4.51;69.47;100424.22;5027126;28;20266;-79
2022/02/19 08:50:31;;;;;;;8.43;1.27;;;;;;;4.50;68.71;100450.94;5025196;28;20271;-80
2022/02/19 08:52:58;;;;;;;8.57;1.60;;;;;;;4.56;68.02;100457.88;5024824;28;20661;-79
2022/02/19 08:55:27;;;;;;;5.43;1.63;;;;;;;4.58;67.84;100488.06;5024897;28;20201;-79
2022/02/19 08:57:54;;;;;;;4.53;1.77;;;;;;;4.61;68.17;100491.50;5027704;28;20302;-79
2022/02/19 09:00:21;;;;;;;8.03;1.43;;;;;;;4.62;68.23;100488.94;5024294;28;20218;-81
2022/02/19 09:02:47;;;;;;;4.30;1.30;;;;;;;4.61;67.21;100527.69;5025982;28;20204;-80
2022/02/19 09:05:15;;;;;;;6.97;2.27;;;;;;;4.58;67.55;100510.47;5039309;28;20238;-80
2022/02/19 09:07:41;;;;;;;3.63;1.30;;;;;;;4.51;66.98;100540.56;5039580;28;20228;-80
2022/02/19 09:10:10;;;;;;;4.37;1.43;;;;;;;4.48;67.27;100544.81;5041854;28;20230;-79
2022/02/19 09:12:43;;;;;;;7.50;1.60;;;;;;;4.51;68.49;100530.22;5039168;28;20205;-77
2022/02/19 09:15:10;;;;;;;5.50;1.30;;;;;;;4.48;68.39;100540.53;5034573;28;20296;-79
2022/02/19 09:17:36;;;;;;;5.90;1.80;;;;;;;4.50;67.40;100558.63;5016624;28;20211;-78
2022/02/19 09:20:03;;;;;;;7.40;1.50;;;;;;;4.51;66.55;100548.31;5015658;28;20221;-78
2022/02/19 09:22:29;;;;;;;5.83;1.87;;;;;;;4.53;67.73;100564.69;5015578;28;20259;-78
2022/02/19 09:24:56;;;;;;;5.13;1.70;;;;;;;4.56;68.16;100554.38;5015152;28;20206;-78
2022/02/19 09:27:22;;;;;;;5.07;1.20;;;;;;;4.68;68.12;100538.09;5014853;28;20203;-80
2022/02/19 09:29:50;;;;;;;5.20;1.40;;;;;;;4.71;67.19;100563.09;5014922;28;20237;-81
2022/02/19 09:32:16;;;;;;;6.50;1.70;;;;;;;4.75;66.48;100581.22;5015775;28;20297;-79
2022/02/19 09:34:43;;;;;;;5.80;1.50;;;;;;;4.70;67.06;100592.41;5015629;28;20267;-78
2022/02/19 09:37:10;;;;;;;5.23;1.47;;;;;;;4.66;68.83;100573.41;5015148;28;20254;-80
2022/02/19 09:39:37;;;;;;;4.50;1.90;;;;;;;4.60;69.15;100564.72;5015145;28;20315;-79
2022/02/19 09:42:03;;;;;;;4.77;2.90;;;;;;;4.57;68.89;100553.50;5029104;28;20210;-79
2022/02/19 09:44:30;;;;;;;5.80;2.40;;;;;;;4.59;68.70;100550.94;5035944;28;20262;-79
2022/02/19 09:46:58;;;;;;;2.17;1.73;;;;;;;4.55;69.18;100562.13;5035568;28;20208;-79
2022/02/19 09:49:25;;;;;;;3.37;2.40;;;;;;;4.69;71.48;100526.03;5034538;28;20230;-79
2022/02/19 09:51:53;;;;;;;6.53;2.60;;;;;;;4.55;69.07;100531.97;5035071;28;20210;-80
2022/02/19 09:54:19;;;;;;;4.20;2.40;;;;;;;4.57;70.17;100532.84;5034557;28;20220;-78
2022/02/19 09:56:45;;;;;;;7.73;2.90;;;;;;;4.55;70.20;100544.88;5037159;28;20261;-79
2022/02/19 09:59:12;;;;;;;4.57;2.50;;;;;;;4.46;71.19;100524.16;5036083;28;20225;-80
2022/02/19 10:01:40;;;;;;;7.93;2.97;;;;;;;4.48;71.01;100526.72;5035330;28;20423;-79
2022/02/19 10:04:08;;;;;;;4.63;2.70;;;;;;;4.46;71.77;100507.75;5034788;28;20217;-79
2022/02/19 10:06:37;;;;;;;4.90;2.70;;;;;;;4.48;70.33;100511.22;5036403;28;20198;-79
2022/02/19 10:09:11;;;;;;;9.70;2.47;;;;;;;4.43;70.71;100542.22;5035191;28;20306;-80
2022/02/19 10:11:38;;;;;;;5.40;2.70;;;;;;;4.35;70.82;100524.06;5029873;28;20201;-79
2022/02/19 10:14:21;;;;;;;6.07;3.00;;;;;;;4.46;71.38;100518.09;5015045;28;20261;-79
2022/02/19 10:17:15;;;;;;;6.03;2.70;;;;;;;4.43;71.31;100520.69;5014437;28;20223;-80
2022/02/19 10:19:51;;;;;;;3.80;2.07;;;;;;;4.54;70.12;100542.31;5027964;28;20224;-79
2022/02/19 10:22:19;;;;;;;3.43;1.93;;;;;;;4.62;69.28;100570.78;5035095;28;20665;-79
2022/02/19 10:24:47;;;;;;;6.37;2.33;;;;;;;4.67;68.72;100618.22;5028661;28;20613;-80
2022/02/19 10:27:13;;;;;;;4.53;2.50;;;;;;;4.81;69.17;100600.22;5014639;28;20639;-78
2022/02/19 10:29:52;;;;;;;4.83;2.20;;;;;;;4.81;67.33;100646.78;5024602;28;20302;-78
2022/02/19 10:32:19;;;;;;;4.77;2.37;;;;;;;4.95;68.59;100630.50;5034408;28;20207;-78
2022/02/19 10:35:03;;;;;;;4.37;2.50;;;;;;;4.91;67.74;100646.00;5036560;28;20215;-81
2022/02/19 10:37:30;;;;;;;4.60;2.63;;;;;;;4.95;69.17;100638.25;5035207;28;20202;-79
2022/02/19 10:39:58;;;;;;;3.47;2.00;;;;;;;4.92;65.65;100646.00;5033810;28;20222;-80
2022/02/19 10:42:33;;;;;;;9.93;2.50;;;;;;;4.94;67.44;100670.16;5023440;28;20197;-79
2022/02/19 10:45:07;;;;;;;4.73;2.07;;;;;;;4.92;66.56;100671.88;5015082;28;20638;-80
2022/02/19 10:47:35;;;;;;;3.10;2.30;;;;;;;4.92;66.04;100691.72;5015422;28;20216;-79
2022/02/19 10:52:58;;;;;;;9.73;2.23;;;;;;;5.12;66.84;100700.50;5089425;28;20562;-77
2022/02/19 10:55:29;;;;;;;6.77;1.83;;;;;;;5.20;65.59;100704.88;5069556;28;20206;-76
2022/02/19 10:57:59;;;;;;;4.27;1.40;;;;;;;5.18;65.31;100756.59;5070872;28;20667;-77
2022/02/19 11:00:27;;;;;;;5.87;1.73;;;;;;;5.29;65.46;100734.28;5070591;28;20212;-76
2022/02/19 11:02:54;;;;;;;5.77;2.20;;;;;;;5.25;65.79;100739.38;5069807;28;20620;-78
2022/02/19 11:05:22;;;;;;;4.10;1.50;;;;;;;5.36;66.71;100728.25;5070562;28;20222;-76
2022/02/19 11:07:51;;;;;;;7.43;1.83;;;;;;;5.39;65.71;100732.59;5071018;28;20232;-77
2022/02/19 11:10:20;;;;;;;5.00;1.63;;;;;;;5.36;64.41;100767.09;5069831;28;20214;-76
2022/02/19 11:12:48;;;;;;;3.57;1.63;;;;;;;5.31;64.12;100784.31;5070584;28;20229;-78
2022/02/19 11:15:18;;;;;;;8.23;1.33;;;;;;;5.39;64.80;100774.00;5071571;28;20276;-77
2022/02/19 11:17:46;;;;;;;7.30;1.63;;;;;;;5.37;64.30;100809.38;5071119;28;20249;-77
2022/02/19 11:20:13;;;;;;;6.17;1.80;;;;;;;5.53;65.13;100775.00;5071293;28;20215;-77
2022/02/19 11:22:43;;;;;;;9.03;2.10;;;;;;;5.64;64.64;100793.19;5065978;28;20206;-77
2022/02/19 11:25:11;;;;;;;4.17;1.57;;;;;;;5.82;63.66;100783.81;5071882;28;20223;-78
2022/02/19 11:27:41;;;;;;;2.60;1.70;;;;;;;5.57;62.88;100817.31;5067992;28;20289;-79
2022/02/19 11:30:10;;;;;;;5.03;1.77;;;;;;;5.65;63.51;100807.00;5071942;28;20207;-79
2022/02/19 11:32:39;;;;;;;3.27;1.60;;;;;;;5.53;62.65;100816.41;5070525;28;20227;-78
2022/02/19 11:35:08;;;;;;;2.83;1.37;;;;;;;5.55;62.60;100845.78;5069905;28;20712;-78
2022/02/19 11:37:40;;;;;;;3.47;1.60;;;;;;;5.82;63.04;100838.19;5070019;28;20205;-79
2022/02/19 11:40:10;;;;;;;4.80;1.73;;;;;;;5.76;62.57;100852.84;5072042;28;20211;-78
2022/02/19 11:42:44;;;;;;;4.13;1.77;;;;;;;5.53;63.11;100838.84;5072452;28;20760;-79
2022/02/19 11:45:24;;;;;;;4.63;1.37;;;;;;;5.51;63.82;100820.72;5071656;28;20230;-79
2022/02/19 11:47:51;;;;;;;8.30;1.87;;;;;;;5.65;63.62;100815.66;5070757;28;20212;-78
2022/02/19 11:50:24;;;;;;;7.10;1.67;;;;;;;5.60;63.29;100852.72;5069506;28;20270;-78